Celebrity Silhouette — 9HA2583 — position and weather

sailwx.info

Track history (hours):
 
Tides and Currents Weather Stations Pressure Air Temp Water Temp Dewpoint Dewpoint Depression Visibility Wind Speed Wind Dir Waves Ship Positions

Celebrity Silhouette

Last reported at 2020-Apr-02 19:00 UTC. Time now 2020-Apr-02 21:59 UTC.
Position N 25°42' W 078°06'.

Length 319 m; draft 8.8 m.

Type: Passenger vessel. MMSI: 248939000.

Wind from 050 at 5 knots

Barometer 1013.4 mb
Air temperature 25.0 ° C
Visibility: greater than 10.8 NM
Dewpoint -27.7 ° C
Water temperature 27.0 ° C

Date/timePositionNaut miles runAvg speedWind from/ knotsBaromVisibWave heightAir tempDewpointWater temp
2020-Apr-02 19:00N 25°42' W 078°06'0 0.0 050 / 51013.410.8 25.0-27.727.0
2020-Apr-02 16:00N 25°42' W 078°06'0 0.0 050 / 61015.410.8 25.0-13.227.0
2020-Apr-02 15:00N 25°42' W 078°06'16 5.4 340 / 71015.527.0 23.018.321.0
2020-Apr-02 12:00N 25°54' W 078°18'54 8.2 360 / 131014.327.0 22.0 6.4
2020-Apr-02 05:26N 26°12' W 079°15'21 7.3
2020-Apr-02 02:30N 26°09' W 079°38'4 7.2
2020-Apr-02 02:00N 26°09' W 079°42'22 7.3
2020-Apr-01 23:00N 26°06' W 080°07'1 1.0
2020-Apr-01 22:28N 26°05' W 080°07'0 0.0
2020-Apr-01 21:28N 26°05' W 080°07'0 0.0
2020-Apr-01 20:55N 26°05' W 080°07'0 0.0
2020-Apr-01 18:28N 26°05' W 080°07'0 0.0
2020-Apr-01 17:58N 26°05' W 080°07'0 0.0
2020-Apr-01 16:58N 26°05' W 080°07'0 0.0
2020-Apr-01 16:28N 26°05' W 080°07'6 1.1
2020-Apr-01 10:30N 26°05' W 080°00'2610.6
2020-Apr-01 08:00N 25°44' W 079°42'510.5
2020-Apr-01 07:30N 25°39' W 079°40'  
2020-Mar-28 23:30N 27°38' W 083°02'0 0.0
2020-Mar-28 20:54N 27°38' W 083°02'0 0.0
2020-Mar-28 01:00N 27°38' W 083°02'  
Track history (hours):
 
Tides and Currents Weather Stations Pressure Air Temp Water Temp Dewpoint Dewpoint Depression Visibility Wind Speed Wind Dir Waves Ship Positions

Celebrity Silhouette

Last reported at 2020-Apr-02 19:00 UTC. Time now 2020-Apr-02 21:59 UTC.
Position N 25°42' W 078°06'.

Length 319 m; draft 8.8 m.

Type: Passenger vessel. MMSI: 248939000.

Wind from 050 at 5 knots

Barometer 1013.4 mb
Air temperature 25.0 ° C
Visibility: greater than 10.8 NM
Dewpoint -27.7 ° C
Water temperature 27.0 ° C

Date/timePositionNaut miles runAvg speedWind from/ knotsBaromVisibWave heightAir tempDewpointWater temp
2020-Apr-02 19:00N 25°42' W 078°06'0 0.0 050 / 51013.410.8 25.0-27.727.0
2020-Apr-02 16:00N 25°42' W 078°06'0 0.0 050 / 61015.410.8 25.0-13.227.0
2020-Apr-02 15:00N 25°42' W 078°06'16 5.4 340 / 71015.527.0 23.018.321.0
2020-Apr-02 12:00N 25°54' W 078°18'54 8.2 360 / 131014.327.0 22.0 6.4
2020-Apr-02 05:26N 26°12' W 079°15'21 7.3
2020-Apr-02 02:30N 26°09' W 079°38'4 7.2
2020-Apr-02 02:00N 26°09' W 079°42'22 7.3
2020-Apr-01 23:00N 26°06' W 080°07'1 1.0
2020-Apr-01 22:28N 26°05' W 080°07'0 0.0
2020-Apr-01 21:28N 26°05' W 080°07'0 0.0
2020-Apr-01 20:55N 26°05' W 080°07'0 0.0
2020-Apr-01 18:28N 26°05' W 080°07'0 0.0
2020-Apr-01 17:58N 26°05' W 080°07'0 0.0
2020-Apr-01 16:58N 26°05' W 080°07'0 0.0
2020-Apr-01 16:28N 26°05' W 080°07'6 1.1
2020-Apr-01 10:30N 26°05' W 080°00'2610.6
2020-Apr-01 08:00N 25°44' W 079°42'510.5
2020-Apr-01 07:30N 25°39' W 079°40'  
2020-Mar-28 23:30N 27°38' W 083°02'0 0.0
2020-Mar-28 20:54N 27°38' W 083°02'0 0.0
2020-Mar-28 01:00N 27°38' W 083°02'  

Dump ship's entire track history